createdAt,value
2019-04-21T00:01:57.838Z,4.29
2019-04-21T00:04:40.579Z,4.21
2019-04-21T00:07:33.211Z,4.17
2019-04-21T00:12:18.281Z,4.02
2019-04-21T00:14:39.540Z,3.97
2019-04-21T00:17:05.860Z,3.92
2019-04-21T00:19:33.975Z,3.87
2019-04-21T00:22:13.871Z,3.85
2019-04-21T00:24:45.668Z,3.86
2019-04-21T00:27:22.941Z,3.85
2019-04-21T00:29:51.974Z,3.80
2019-04-21T00:32:21.815Z,3.73
2019-04-21T00:34:36.388Z,3.59
2019-04-21T00:37:15.677Z,3.39
2019-04-21T00:40:02.229Z,3.36
2019-04-21T00:42:26.050Z,3.26
2019-04-21T00:44:51.947Z,3.21
2019-04-21T00:47:30.301Z,3.18
2019-04-21T00:50:00.824Z,3.16
2019-04-21T00:55:23.419Z,3.16
2019-04-21T00:57:45.265Z,3.16
2019-04-21T01:00:13.727Z,3.14
2019-04-21T01:02:45.530Z,3.19
2019-04-21T01:05:16.698Z,3.26
2019-04-21T01:07:41.989Z,3.33
2019-04-21T01:10:06.321Z,3.39
2019-04-21T01:12:43.445Z,3.36
2019-04-21T01:15:18.317Z,3.36
2019-04-21T01:17:46.272Z,3.40
2019-04-21T01:20:10.532Z,3.38
2019-04-21T01:22:26.853Z,3.27
2019-04-21T01:25:04.319Z,3.22
2019-04-21T01:27:50.844Z,3.12
2019-04-21T01:30:20.763Z,3.16
2019-04-21T01:32:49.408Z,3.21
2019-04-21T01:35:21.171Z,3.21
2019-04-21T01:38:00.083Z,3.21
2019-04-21T01:40:22.903Z,3.22
2019-04-21T01:42:52.938Z,3.19
2019-04-21T01:45:20.047Z,3.17
2019-04-21T01:47:46.248Z,3.15
2019-04-21T01:50:18.411Z,3.16
2019-04-21T01:52:56.042Z,3.14
2019-04-21T01:55:43.120Z,3.17
2019-04-21T01:58:09.765Z,3.09
2019-04-21T02:00:56.862Z,3.06
2019-04-21T02:03:54.527Z,3.04
2019-04-21T02:06:13.678Z,2.97
2019-04-21T02:08:34.611Z,2.88
2019-04-21T02:13:35.174Z,2.90
2019-04-21T02:16:06.518Z,2.91
2019-04-21T02:18:33.333Z,2.91
2019-04-21T02:20:55.430Z,3.02
2019-04-21T02:26:10.124Z,3.04
2019-04-21T02:28:50.454Z,3.00
2019-04-21T02:33:55.837Z,3.01
2019-04-21T02:36:51.406Z,3.14
2019-04-21T02:39:00.238Z,3.36
2019-04-21T02:41:18.766Z,3.39
2019-04-21T02:43:54.319Z,3.29
2019-04-21T02:46:27.443Z,3.33
2019-04-21T02:48:56.444Z,3.28
2019-04-21T02:51:30.852Z,3.28
2019-04-21T02:54:28.892Z,3.27
2019-04-21T02:56:29.796Z,3.24
2019-04-21T03:04:13.247Z,3.22
2019-04-21T03:07:01.635Z,3.15
2019-04-21T03:09:43.222Z,3.09
2019-04-21T03:12:05.526Z,2.92
2019-04-21T03:14:35.961Z,2.93
2019-04-21T03:16:57.677Z,3.05
2019-04-21T03:19:36.480Z,3.14
2019-04-21T03:22:06.662Z,3.11
2019-04-21T03:24:39.923Z,3.12
2019-04-21T03:27:10.404Z,3.11
2019-04-21T03:29:36.708Z,3.18
2019-04-21T03:35:02.483Z,3.24
2019-04-21T03:37:14.062Z,3.19
2019-04-21T03:39:37.229Z,3.15
2019-04-21T03:44:32.220Z,3.44
2019-04-21T03:47:10.946Z,3.59
2019-04-21T03:49:45.466Z,3.63
2019-04-21T03:52:11.510Z,3.70
2019-04-21T03:54:37.377Z,3.88
2019-04-21T03:59:38.456Z,3.87
2019-04-21T04:02:23.092Z,4.01
2019-04-21T04:10:08.369Z,4.08
2019-04-21T04:12:34.393Z,4.09
2019-04-21T04:15:15.783Z,4.04
2019-04-21T04:17:36.371Z,4.08
2019-04-21T04:20:06.137Z,4.15
2019-04-21T04:22:41.624Z,4.20
2019-04-21T04:27:54.036Z,4.14
2019-04-21T04:30:12.459Z,4.17
2019-04-21T04:32:46.849Z,4.16
2019-04-21T04:35:14.473Z,4.20
2019-04-21T04:37:51.073Z,4.33
2019-04-21T04:40:13.686Z,4.40
2019-04-21T04:43:07.818Z,4.46
2019-04-21T04:45:28.274Z,4.59
2019-04-21T04:47:49.891Z,4.69
2019-04-21T04:50:24.450Z,4.78
2019-04-21T04:53:07.422Z,4.78
2019-04-21T04:55:19.082Z,4.85
2019-04-21T05:00:25.847Z,5.02
2019-04-21T05:08:16.515Z,5.58
2019-04-21T05:10:31.469Z,5.73
2019-04-21T05:20:20.197Z,6.26
2019-04-21T05:22:47.408Z,6.43
2019-04-21T05:25:10.987Z,6.51
2019-04-21T05:27:40.551Z,6.65
2019-04-21T05:30:24.803Z,6.71
2019-04-21T05:32:52.520Z,6.79
2019-04-21T05:35:40.542Z,6.79
2019-04-21T05:38:10.227Z,6.84
2019-04-21T05:40:34.743Z,7.09
2019-04-21T05:43:09.200Z,7.29
2019-04-21T05:45:46.040Z,7.44
2019-04-21T05:50:44.126Z,7.75
2019-04-21T05:53:25.374Z,7.88
2019-04-21T05:55:50.240Z,8.13
2019-04-21T05:58:11.270Z,8.44
2019-04-21T06:03:30.727Z,8.84
2019-04-21T06:06:08.595Z,9.03
2019-04-21T06:08:32.917Z,9.18
2019-04-21T06:11:00.176Z,9.36
2019-04-21T06:13:41.016Z,9.43
2019-04-21T06:16:03.899Z,9.51
2019-04-21T06:21:06.944Z,9.75
2019-04-21T06:23:36.036Z,9.87
2019-04-21T06:26:19.303Z,10.05
2019-04-21T06:33:39.423Z,10.76
2019-04-21T06:39:00.338Z,10.95
2019-04-21T06:41:26.665Z,11.10
2019-04-21T06:43:56.325Z,11.22
2019-04-21T06:46:25.857Z,11.31
2019-04-21T06:48:55.948Z,11.26
2019-04-21T06:51:23.938Z,11.44
2019-04-21T06:53:59.535Z,11.65
2019-04-21T06:56:24.029Z,11.88
2019-04-21T06:58:53.489Z,12.09
2019-04-21T07:01:25.231Z,12.29
2019-04-21T07:03:58.428Z,12.57
2019-04-21T07:06:23.810Z,12.78
2019-04-21T07:09:02.908Z,13.06
2019-04-21T07:11:18.758Z,13.36
2019-04-21T07:14:13.533Z,13.93
2019-04-21T07:16:32.054Z,15.12
2019-04-21T07:19:11.361Z,16.45
2019-04-21T07:21:34.476Z,17.41
2019-04-21T07:24:05.781Z,18.77
2019-04-21T07:26:32.857Z,18.77
2019-04-21T07:29:09.063Z,19.35
2019-04-21T07:31:43.148Z,19.78
2019-04-21T07:34:09.083Z,20.45
2019-04-21T07:36:46.413Z,20.37
2019-04-21T07:39:01.310Z,21.08
2019-04-21T07:41:25.163Z,21.13
2019-04-21T07:44:00.299Z,21.28
2019-04-21T07:46:27.314Z,21.61
2019-04-21T07:49:06.636Z,21.56
2019-04-21T07:51:42.015Z,22.62
2019-04-21T07:54:18.410Z,22.95
2019-04-21T07:56:28.778Z,23.03
2019-04-21T07:59:16.459Z,23.29
2019-04-21T08:01:43.880Z,23.48
2019-04-21T08:04:33.286Z,23.19
2019-04-21T08:06:46.541Z,23.87
2019-04-21T08:09:12.595Z,24.37
2019-04-21T08:11:36.686Z,24.32
2019-04-21T08:14:19.511Z,24.78
2019-04-21T08:16:49.966Z,25.44
2019-04-21T08:19:13.085Z,25.21
2019-04-21T08:21:55.879Z,26.19
2019-04-21T08:24:18.166Z,25.47
2019-04-21T08:26:53.110Z,25.40
2019-04-21T08:29:29.723Z,26.51
2019-04-21T08:31:59.105Z,25.30
2019-04-21T08:34:22.667Z,25.69
2019-04-21T08:37:05.467Z,27.56
2019-04-21T08:39:21.468Z,28.48
2019-04-21T08:41:49.615Z,28.17
2019-04-21T08:44:26.230Z,28.04
2019-04-21T08:46:52.673Z,27.96
2019-04-21T08:49:22.197Z,28.53
2019-04-21T08:52:00.710Z,27.65
2019-04-21T08:54:43.180Z,28.56
2019-04-21T08:57:05.959Z,28.21
2019-04-21T08:59:54.335Z,27.74
2019-04-21T09:02:35.074Z,28.15
2019-04-21T09:05:09.344Z,28.35
2019-04-21T09:07:41.402Z,28.93
2019-04-21T09:10:05.564Z,29.12
2019-04-21T09:12:34.716Z,29.13
2019-04-21T09:15:08.609Z,28.99
2019-04-21T09:17:28.672Z,30.38
2019-04-21T09:20:13.783Z,30.18
2019-04-21T09:22:37.831Z,31.47
2019-04-21T09:25:03.421Z,32.49
2019-04-21T09:27:33.600Z,32.25
2019-04-21T09:29:54.037Z,31.91
2019-04-21T09:32:23.849Z,31.55
2019-04-21T09:34:51.312Z,30.05
2019-04-21T09:37:32.763Z,31.09
2019-04-21T09:39:53.573Z,30.49
2019-04-21T09:42:21.899Z,31.04
2019-04-21T09:44:55.604Z,30.94
2019-04-21T09:47:24.553Z,29.87
2019-04-21T09:49:51.948Z,29.96
2019-04-21T09:52:25.708Z,30.79
2019-04-21T09:55:01.171Z,32.16
2019-04-21T09:57:32.751Z,32.50
2019-04-21T10:00:02.186Z,32.48
2019-04-21T10:02:34.179Z,32.58
2019-04-21T10:04:52.778Z,30.41
2019-04-21T10:07:28.174Z,30.81
2019-04-21T10:09:52.426Z,31.50
2019-04-21T10:12:21.073Z,32.07
2019-04-21T10:14:49.630Z,31.68
2019-04-21T10:17:19.898Z,30.23
2019-04-21T10:19:48.578Z,31.50
2019-04-21T10:22:17.163Z,31.38
2019-04-21T10:24:46.739Z,31.59
2019-04-21T10:27:16.982Z,33.16
2019-04-21T10:29:47.241Z,32.45
2019-04-21T10:32:18.633Z,32.55
2019-04-21T10:34:47.518Z,32.33
2019-04-21T10:37:16.690Z,32.46
2019-04-21T10:39:45.487Z,33.80
2019-04-21T10:42:15.374Z,34.10
2019-04-21T10:44:45.156Z,34.40
2019-04-21T10:47:14.470Z,35.38
2019-04-21T10:49:44.614Z,36.24
2019-04-21T10:52:15.335Z,36.65
2019-04-21T10:55:07.105Z,37.04
2019-04-21T10:57:16.798Z,36.78
2019-04-21T10:59:47.965Z,34.09
2019-04-21T11:02:39.106Z,33.67
2019-04-21T11:05:09.072Z,34.03
2019-04-21T11:07:59.379Z,33.47
2019-04-21T11:10:16.209Z,32.03
2019-04-21T11:12:47.591Z,32.27
2019-04-21T11:15:15.131Z,30.40
2019-04-21T11:17:45.120Z,29.90
2019-04-21T11:20:15.062Z,29.11
2019-04-21T11:22:43.913Z,28.32
2019-04-21T11:25:12.924Z,28.63
2019-04-21T11:27:42.912Z,29.62
2019-04-21T11:30:11.759Z,29.99
2019-04-21T11:32:42.122Z,28.26
2019-04-21T11:35:10.696Z,29.48
2019-04-21T11:37:39.905Z,30.34
2019-04-21T11:40:11.390Z,29.18
2019-04-21T11:42:41.898Z,27.14
2019-04-21T11:45:22.097Z,27.12
2019-04-21T11:47:52.469Z,26.94
2019-04-21T11:50:21.167Z,27.46
2019-04-21T11:52:49.737Z,27.66
2019-04-21T11:55:18.751Z,27.03
2019-04-21T11:57:49.589Z,26.32
2019-04-21T12:00:17.813Z,26.30
2019-04-21T12:02:47.671Z,28.21
2019-04-21T12:05:17.333Z,31.51
2019-04-21T12:07:47.184Z,31.95
2019-04-21T12:10:15.831Z,32.60
2019-04-21T12:12:45.399Z,34.54
2019-04-21T12:15:14.333Z,35.85
2019-04-21T12:17:43.997Z,35.68
2019-04-21T12:20:13.133Z,35.12
2019-04-21T12:22:43.216Z,36.08
2019-04-21T12:25:13.619Z,37.20
2019-04-21T12:27:43.778Z,37.63
2019-04-21T12:30:15.665Z,37.40
2019-04-21T12:32:55.962Z,34.78
2019-04-21T12:35:26.011Z,34.29
2019-04-21T12:37:55.006Z,33.58
2019-04-21T12:40:24.850Z,34.22
2019-04-21T12:42:54.788Z,35.83
2019-04-21T12:45:24.029Z,35.17
2019-04-21T12:47:53.891Z,33.43
2019-04-21T12:50:23.623Z,32.02
2019-04-21T12:52:53.584Z,32.43
2019-04-21T12:55:30.527Z,32.22
2019-04-21T12:57:55.399Z,34.06
2019-04-21T13:00:24.826Z,30.81
2019-04-21T13:02:53.995Z,32.16
2019-04-21T13:05:22.730Z,35.10
2019-04-21T13:07:51.389Z,36.18
2019-04-21T13:10:20.509Z,35.94
2019-04-21T13:12:52.273Z,37.26
2019-04-21T13:15:21.843Z,36.82
2019-04-21T13:17:50.436Z,37.67
2019-04-21T13:20:19.348Z,35.43
2019-04-21T13:22:54.321Z,32.85
2019-04-21T13:25:23.582Z,30.70
2019-04-21T13:27:52.443Z,29.03
2019-04-21T13:30:22.306Z,27.82
2019-04-21T13:32:53.654Z,27.07
2019-04-21T13:35:23.293Z,25.71
2019-04-21T13:37:52.374Z,25.21
2019-04-21T13:40:53.367Z,24.99
2019-04-21T13:43:10.704Z,24.82
2019-04-21T13:45:39.572Z,24.35
2019-04-21T13:48:08.436Z,23.87
2019-04-21T13:50:37.364Z,24.20
2019-04-21T13:53:06.909Z,26.09
2019-04-21T13:55:38.941Z,28.07
2019-04-21T13:58:08.729Z,27.53
2019-04-21T14:00:37.981Z,26.56
2019-04-21T14:03:10.449Z,25.44
2019-04-21T14:05:40.265Z,23.65
2019-04-21T14:08:09.354Z,22.53
2019-04-21T14:11:11.292Z,22.01
2019-04-21T14:14:16.560Z,21.40
2019-04-21T14:17:22.486Z,20.61
2019-04-21T14:20:10.935Z,20.66
2019-04-21T14:23:27.763Z,21.24
2019-04-21T14:26:06.475Z,21.25
2019-04-21T14:29:11.363Z,21.08
2019-04-21T14:32:00.087Z,21.06
2019-04-21T14:35:04.968Z,22.49
2019-04-21T14:37:56.533Z,24.27
2019-04-21T14:41:02.197Z,26.66
2019-04-21T14:43:50.505Z,28.47
2019-04-21T14:46:57.455Z,28.98
2019-04-21T14:50:05.105Z,29.61
2019-04-21T14:53:15.867Z,29.72
2019-04-21T14:56:04.102Z,29.81
2019-04-21T14:59:09.165Z,31.08
2019-04-21T15:01:57.918Z,30.93
2019-04-21T15:05:04.023Z,31.42
2019-04-21T15:07:53.183Z,30.48
2019-04-21T15:10:58.867Z,30.76
2019-04-21T15:13:48.030Z,31.15
2019-04-21T15:16:52.976Z,30.89
2019-04-21T15:19:42.826Z,30.90
2019-04-21T15:22:48.309Z,31.07
2019-04-21T15:25:36.633Z,29.24
2019-04-21T15:28:42.543Z,29.42
2019-04-21T15:31:34.515Z,29.65
2019-04-21T15:34:38.224Z,29.83
2019-04-21T15:37:26.485Z,29.99
2019-04-21T15:40:40.681Z,29.70
2019-04-21T15:43:22.399Z,28.34
2019-04-21T15:46:29.143Z,28.60
2019-04-21T15:49:17.607Z,28.14
2019-04-21T15:52:22.368Z,28.19
2019-04-21T15:55:12.589Z,28.09
2019-04-21T15:58:28.432Z,26.80
2019-04-21T16:04:36.812Z,24.96
2019-04-21T16:07:42.354Z,24.44
2019-04-21T16:10:39.134Z,24.52
2019-04-21T16:13:37.332Z,24.65
2019-04-21T16:16:28.324Z,24.56
2019-04-21T16:19:33.338Z,24.23
2019-04-21T16:22:21.449Z,23.00
2019-04-21T16:25:26.739Z,22.20
2019-04-21T16:28:15.427Z,22.01
2019-04-21T16:31:20.425Z,21.09
2019-04-21T16:34:09.287Z,21.00
2019-04-21T16:37:17.439Z,20.04
2019-04-21T16:40:05.681Z,19.41
2019-04-21T16:43:10.501Z,18.28
2019-04-21T16:45:59.076Z,17.87
2019-04-21T16:49:04.161Z,16.96
2019-04-21T16:55:19.075Z,16.31
2019-04-21T16:58:34.781Z,15.87
2019-04-21T17:01:29.760Z,15.57
2019-04-21T17:04:34.285Z,15.28
2019-04-21T17:07:24.051Z,15.10
2019-04-21T17:10:29.022Z,14.83
2019-04-21T17:13:18.254Z,14.49
2019-04-21T17:19:20.205Z,14.21
2019-04-21T17:22:19.607Z,13.98
2019-04-21T17:28:09.829Z,13.78
2019-04-21T17:31:18.180Z,13.65
2019-04-21T17:34:10.392Z,13.60
2019-04-21T17:37:15.223Z,13.49
2019-04-21T17:40:05.635Z,13.44
2019-04-21T17:43:14.361Z,13.29
2019-04-21T17:45:59.940Z,13.04
2019-04-21T17:49:05.231Z,12.99
2019-04-21T17:52:00.496Z,12.83
2019-04-21T17:55:11.469Z,12.65
2019-04-21T17:58:09.710Z,12.49
2019-04-21T18:01:32.277Z,12.35
2019-04-21T18:07:45.321Z,12.24
2019-04-21T18:10:27.711Z,12.13
2019-04-21T18:13:19.214Z,11.92
2019-04-21T18:16:19.188Z,11.86
2019-04-21T18:19:12.980Z,11.79
2019-04-21T18:22:06.502Z,11.70
2019-04-21T18:25:27.120Z,11.61
2019-04-21T18:28:00.761Z,11.51
2019-04-21T18:31:07.090Z,11.31
2019-04-21T18:34:02.171Z,11.08
2019-04-21T18:37:32.107Z,11.26
2019-04-21T18:40:21.133Z,11.42
2019-04-21T18:44:02.822Z,11.44
2019-04-21T18:49:44.327Z,11.00
2019-04-21T18:53:08.997Z,10.91
2019-04-21T18:55:55.743Z,11.13
2019-04-21T18:58:54.184Z,11.16
2019-04-21T19:01:51.441Z,11.16
2019-04-21T19:04:53.639Z,11.15
2019-04-21T19:07:55.859Z,11.40
2019-04-21T19:11:10.318Z,11.28
2019-04-21T19:18:05.363Z,11.40
2019-04-21T19:23:11.557Z,10.99
2019-04-21T19:26:11.315Z,11.29
2019-04-21T19:29:19.449Z,11.29
2019-04-21T19:32:01.708Z,11.43
2019-04-21T19:34:52.572Z,11.34
2019-04-21T19:37:44.018Z,11.33
2019-04-21T19:40:56.862Z,11.17
2019-04-21T19:43:52.361Z,11.03
2019-04-21T19:47:00.033Z,10.81
2019-04-21T19:49:49.954Z,10.55
2019-04-21T19:52:47.275Z,10.42
2019-04-21T19:55:25.700Z,10.29
2019-04-21T19:58:33.814Z,10.13
2019-04-21T20:01:21.360Z,10.03
2019-04-21T20:04:34.355Z,9.85
2019-04-21T20:07:26.149Z,9.68
2019-04-21T20:10:39.609Z,9.44
2019-04-21T20:13:40.583Z,9.31
2019-04-21T20:16:37.556Z,9.18
2019-04-21T20:19:11.739Z,9.01
2019-04-21T20:22:14.712Z,8.80
2019-04-21T20:25:09.861Z,8.67
2019-04-21T20:28:21.346Z,8.49
2019-04-21T20:31:18.869Z,8.37
2019-04-21T20:34:28.282Z,8.20
2019-04-21T20:37:18.603Z,8.15
2019-04-21T20:40:05.345Z,8.06
2019-04-21T20:43:12.446Z,8.01
2019-04-21T20:46:12.550Z,7.97
2019-04-21T20:48:59.991Z,7.99
2019-04-21T20:52:17.306Z,8.02
2019-04-21T20:54:56.831Z,8.05
2019-04-21T20:57:57.769Z,7.98
2019-04-21T21:01:07.411Z,7.84
2019-04-21T21:03:58.045Z,7.97
2019-04-21T21:06:54.164Z,7.83
2019-04-21T21:10:00.422Z,7.52
2019-04-21T21:16:03.767Z,7.18
2019-04-21T21:21:48.563Z,6.96
2019-04-21T21:24:49.022Z,7.06
2019-04-21T21:27:41.795Z,7.13
2019-04-21T21:30:32.319Z,7.18
2019-04-21T21:33:50.739Z,6.87
2019-04-21T21:36:33.457Z,6.80
2019-04-21T21:42:34.359Z,7.25
2019-04-21T21:45:45.144Z,7.11
2019-04-21T21:48:40.690Z,6.97
2019-04-21T21:51:42.908Z,6.80
2019-04-21T21:54:22.157Z,6.55
2019-04-21T21:57:28.325Z,6.67
2019-04-21T22:00:17.555Z,6.53
2019-04-21T22:03:31.767Z,6.31
2019-04-21T22:06:19.152Z,6.45
2019-04-21T22:09:22.023Z,6.49
2019-04-21T22:12:11.014Z,6.39
2019-04-21T22:15:19.758Z,6.45
2019-04-21T22:18:27.302Z,6.43
2019-04-21T22:21:35.110Z,6.49
2019-04-21T22:24:09.198Z,6.40
2019-04-21T22:27:09.682Z,6.27
2019-04-21T22:30:01.407Z,6.12
2019-04-21T22:33:08.534Z,6.04
2019-04-21T22:36:02.274Z,6.24
2019-04-21T22:39:20.821Z,6.16
2019-04-21T22:42:00.916Z,6.41
2019-04-21T22:44:56.642Z,6.23
2019-04-21T22:47:46.530Z,6.31
2019-04-21T22:50:51.019Z,6.21
2019-04-21T22:53:43.686Z,6.30
2019-04-21T22:56:56.510Z,6.07
2019-04-21T22:59:35.642Z,6.16
2019-04-21T23:02:42.759Z,6.00
2019-04-21T23:05:36.280Z,5.97
2019-04-21T23:11:49.168Z,5.96
2019-04-21T23:14:58.540Z,6.00
2019-04-21T23:17:59.536Z,5.75
2019-04-21T23:21:03.419Z,5.90
2019-04-21T23:23:57.431Z,5.80
2019-04-21T23:26:56.092Z,5.92
2019-04-21T23:30:00.518Z,5.80
2019-04-21T23:32:50.527Z,5.75
2019-04-21T23:35:35.273Z,5.84
2019-04-21T23:38:43.515Z,5.76
2019-04-21T23:41:25.980Z,5.68
2019-04-21T23:44:38.679Z,5.71
2019-04-21T23:47:36.954Z,5.65
2019-04-21T23:50:40.811Z,5.50
2019-04-21T23:53:17.594Z,5.53
2019-04-21T23:56:32.927Z,5.49
2019-04-21T23:59:15.684Z,5.45
